Time;durP1;ratioP1;P1;durP2;ratioP2;P2;SDS_P1;SDS_P2;PMS_P1;PMS_P2;Temp;Humidity;BMP_temperature;BMP_pressure;BME280_temperature;BME280_humidity;BME280_pressure;Samples;Min_cycle;Max_cycle;Signal;HPM_P1;HPM_P2
2022/10/03 00:02:08;;;;;;;3.83;2.63;;;;;;;14.77;60.11;96911.94;5046122;28;20322;-79
2022/10/03 00:05:23;;;;;;;2.40;2.20;;;;;;;14.80;60.14;96916.94;5044785;28;20304;-80
2022/10/03 00:08:18;;;;;;;2.53;2.33;;;;;;;14.65;60.87;96911.78;5000104;28;20325;-79
2022/10/03 00:11:14;;;;;;;2.73;2.33;;;;;;;14.73;60.94;96911.31;5045972;28;20193;-80
2022/10/03 00:13:54;;;;;;;3.57;2.60;;;;;;;14.55;61.00;96902.03;5046208;28;20285;-78
2022/10/03 00:17:05;;;;;;;2.20;2.10;;;;;;;14.49;61.68;96903.28;5045196;28;20223;-79
2022/10/03 00:19:57;;;;;;;4.10;2.87;;;;;;;14.40;61.88;96903.88;5045885;28;20287;-80
2022/10/03 00:22:42;;;;;;;2.77;2.43;;;;;;;14.56;62.57;96914.16;5047424;28;20608;-76
2022/10/03 00:25:26;;;;;;;3.50;2.40;;;;;;;14.63;61.86;96892.78;5049776;28;20215;-81
2022/10/03 00:28:13;;;;;;;3.57;2.90;;;;;;;14.87;61.21;96906.03;5050668;28;20184;-77
2022/10/03 00:30:49;;;;;;;2.90;2.57;;;;;;;14.86;61.14;96912.16;5049141;28;20190;-81
2022/10/03 00:33:22;;;;;;;3.40;2.80;;;;;;;14.79;61.31;96903.09;5051126;28;20191;-79
2022/10/03 00:36:13;;;;;;;2.67;2.47;;;;;;;14.92;60.79;96895.31;5050260;28;20193;-77
2022/10/03 00:38:47;;;;;;;3.20;2.57;;;;;;;14.81;61.13;96910.81;5048930;28;20677;-77
2022/10/03 00:41:20;;;;;;;3.07;2.77;;;;;;;14.89;60.73;96896.34;5050471;28;20187;-80
2022/10/03 00:44:21;;;;;;;4.40;3.00;;;;;;;14.67;60.59;96896.88;5049018;28;20744;-82
2022/10/03 00:47:25;;;;;;;3.40;2.77;;;;;;;14.44;62.55;96902.75;5051473;28;20184;-81
2022/10/03 00:50:24;;;;;;;3.33;3.10;;;;;;;14.46;61.52;96906.09;5050282;28;20640;-78
2022/10/03 00:53:19;;;;;;;3.10;2.80;;;;;;;14.57;61.12;96894.94;5049231;28;20205;-81
2022/10/03 00:55:57;;;;;;;3.70;3.17;;;;;;;14.32;61.46;96906.09;5049180;28;20214;-80
2022/10/03 00:58:44;;;;;;;3.00;2.73;;;;;;;14.34;61.49;96893.00;5049972;28;20275;-78
2022/10/03 01:01:23;;;;;;;3.07;2.73;;;;;;;14.30;61.45;96886.31;5047474;28;20189;-80
2022/10/03 01:04:20;;;;;;;2.60;2.40;;;;;;;14.04;61.92;96893.09;5049795;28;20198;-78
2022/10/03 01:07:12;;;;;;;3.67;2.80;;;;;;;13.83;63.06;96892.63;5050275;28;20208;-81
2022/10/03 01:10:09;;;;;;;4.27;2.87;;;;;;;13.82;63.45;96895.34;5048491;28;20220;-80
2022/10/03 01:13:02;;;;;;;2.60;2.40;;;;;;;13.66;63.54;96889.41;5049659;28;20185;-79
2022/10/03 01:16:06;;;;;;;2.40;2.20;;;;;;;13.55;63.64;96876.19;5049943;28;20736;-76
2022/10/03 01:19:10;;;;;;;3.67;2.60;;;;;;;13.83;63.59;96887.44;5040689;28;20217;-79
2022/10/03 01:21:47;;;;;;;3.33;2.40;;;;;;;14.11;62.94;96880.53;5049004;28;20242;-80
2022/10/03 01:24:38;;;;;;;2.77;2.53;;;;;;;14.19;62.17;96886.94;5049399;28;20291;-82
2022/10/03 01:27:26;;;;;;;2.73;2.40;;;;;;;13.89;61.75;96876.63;5048180;28;20223;-82
2022/10/03 01:30:21;;;;;;;3.20;2.57;;;;;;;13.94;62.88;96883.31;5018776;28;20213;-80
2022/10/03 01:33:26;;;;;;;3.33;2.60;;;;;;;14.10;62.73;96878.84;5049225;28;20189;-81
2022/10/03 01:36:18;;;;;;;3.20;2.73;;;;;;;14.19;61.12;96873.91;5048423;28;20299;-81
2022/10/03 01:39:22;;;;;;;7.77;2.70;;;;;;;13.83;62.97;96871.81;5050136;28;20247;-82
2022/10/03 01:42:03;;;;;;;2.90;2.47;;;;;;;13.35;63.36;96868.75;5049452;28;20227;-81
2022/10/03 01:44:29;;;;;;;5.17;2.90;;;;;;;13.65;63.50;96872.09;5052941;28;20283;-82
2022/10/03 01:47:16;;;;;;;4.13;2.37;;;;;;;13.82;62.71;96875.38;5048201;28;20193;-83
2022/10/03 01:50:04;;;;;;;3.60;2.43;;;;;;;13.56;63.42;96872.66;5048910;28;20192;-78
2022/10/03 01:53:09;;;;;;;3.77;2.63;;;;;;;13.96;63.36;96877.09;5047695;28;20215;-78
2022/10/03 01:56:06;;;;;;;2.57;2.37;;;;;;;14.12;62.32;96888.25;5048833;28;20196;-81
2022/10/03 01:58:55;;;;;;;2.57;2.23;;;;;;;14.07;62.77;96885.09;5049201;28;20653;-81
2022/10/03 02:01:47;;;;;;;2.10;1.90;;;;;;;14.06;62.43;96878.19;5047361;28;20683;-80
2022/10/03 02:04:22;;;;;;;3.23;2.47;;;;;;;14.23;62.46;96870.19;5047277;28;20664;-79
2022/10/03 02:07:15;;;;;;;3.07;2.50;;;;;;;14.04;62.38;96879.22;5048164;28;20216;-80
2022/10/03 02:10:07;;;;;;;3.37;2.40;;;;;;;14.09;62.76;96888.44;5046993;28;20225;-82
2022/10/03 02:12:38;;;;;;;5.63;2.50;;;;;;;14.17;62.73;96878.38;5048426;28;20200;-80
2022/10/03 02:15:24;;;;;;;2.97;2.30;;;;;;;14.17;62.42;96870.56;5047393;28;20192;-80
2022/10/03 02:18:11;;;;;;;2.53;2.33;;;;;;;14.05;63.02;96870.50;5046660;28;20800;-78
2022/10/03 02:20:53;;;;;;;2.90;2.70;;;;;;;14.17;62.69;96867.13;5048931;28;20691;-79
2022/10/03 02:23:30;;;;;;;2.87;2.67;;;;;;;14.09;62.73;96870.22;5047335;28;20232;-79
2022/10/03 02:26:48;;;;;;;6.30;2.83;;;;;;;13.95;63.78;96874.59;5047765;28;20633;-77
2022/10/03 02:29:45;;;;;;;4.77;3.00;;;;;;;14.05;64.17;96879.16;5016139;28;20635;-77
2022/10/03 02:32:30;;;;;;;5.33;3.00;;;;;;;14.17;63.06;96881.00;5048342;28;20196;-80
2022/10/03 02:35:16;;;;;;;2.83;2.60;;;;;;;14.19;63.28;96884.34;5050037;28;20200;-78
2022/10/03 02:37:53;;;;;;;4.93;3.00;;;;;;;14.18;63.14;96885.25;5050113;28;20285;-78
2022/10/03 02:40:35;;;;;;;3.67;3.33;;;;;;;13.91;63.55;96891.34;5048456;28;20216;-79
2022/10/03 02:43:45;;;;;;;3.10;2.77;;;;;;;13.22;66.21;96883.38;5051302;28;20221;-76
2022/10/03 02:46:25;;;;;;;3.27;2.97;;;;;;;13.18;66.29;96874.09;5017042;28;20236;-78
2022/10/03 02:48:58;;;;;;;2.83;2.57;;;;;;;12.91;66.92;96882.53;5046718;28;20191;-81
2022/10/03 02:51:43;;;;;;;5.70;3.47;;;;;;;12.77;67.23;96869.50;5047942;28;20219;-79
2022/10/03 02:54:44;;;;;;;5.43;3.67;;;;;;;12.78;67.28;96860.75;5045605;28;20190;-77
2022/10/03 02:57:32;;;;;;;4.17;3.30;;;;;;;12.99;67.59;96867.34;5046675;28;20262;-76
2022/10/03 03:00:20;;;;;;;3.47;3.00;;;;;;;13.28;66.42;96868.25;5046538;28;20284;-76
2022/10/03 03:02:53;;;;;;;3.43;3.10;;;;;;;13.44;64.93;96862.97;5046539;28;20253;-80
2022/10/03 03:05:58;;;;;;;3.47;3.17;;;;;;;13.25;64.50;96865.00;5047484;28;20616;-77
2022/10/03 03:08:56;;;;;;;3.43;3.13;;;;;;;13.13;65.62;96855.34;5047560;28;20573;-77
2022/10/03 03:11:46;;;;;;;2.90;2.40;;;;;;;12.76;66.53;96864.38;5046550;28;20296;-80
2022/10/03 03:14:58;;;;;;;3.33;3.03;;;;;;;12.63;67.04;96853.84;5046862;28;20229;-80
2022/10/03 03:17:44;;;;;;;3.43;3.13;;;;;;;12.74;66.27;96845.44;5047527;28;20203;-80
2022/10/03 03:20:53;;;;;;;4.60;3.07;;;;;;;12.88;66.22;96855.91;5046540;28;20292;-78
2022/10/03 03:23:45;;;;;;;3.13;2.83;;;;;;;13.10;66.58;96845.09;5046106;28;20687;-81
2022/10/03 03:26:35;;;;;;;2.90;2.70;;;;;;;13.28;65.81;96831.84;5047579;28;20594;-78
2022/10/03 03:29:09;;;;;;;3.70;2.60;;;;;;;13.39;66.15;96844.22;5046466;28;20242;-82
2022/10/03 03:32:02;;;;;;;3.00;2.70;;;;;;;13.40;66.08;96840.66;5046617;28;20231;-82
2022/10/03 03:34:59;;;;;;;4.70;3.03;;;;;;;13.59;64.46;96841.25;5047488;28;20193;-81
2022/10/03 03:37:58;;;;;;;4.20;2.90;;;;;;;13.54;64.73;96819.88;5046130;28;20193;-80
2022/10/03 03:41:05;;;;;;;3.73;2.70;;;;;;;13.13;66.13;96818.94;5046466;28;20193;-80
2022/10/03 03:43:47;;;;;;;4.70;3.80;;;;;;;12.81;67.58;96815.59;5050977;28;20216;-78
2022/10/03 03:46:44;;;;;;;4.80;2.93;;;;;;;12.70;67.92;96818.78;5046244;28;20942;-80
2022/10/03 03:49:28;;;;;;;3.43;3.00;;;;;;;12.49;68.35;96809.63;5045705;28;20204;-80
2022/10/03 03:51:55;;;;;;;4.90;3.00;;;;;;;12.42;70.40;96803.13;5047286;28;20182;-77
2022/10/03 03:54:28;;;;;;;3.53;3.23;;;;;;;12.68;68.66;96792.06;5045719;28;20221;-81
2022/10/03 03:57:08;;;;;;;3.50;3.20;;;;;;;12.11;69.51;96795.38;5049401;28;20595;-80
2022/10/03 04:00:04;;;;;;;3.23;2.93;;;;;;;11.68;70.46;96768.38;5050550;28;20250;-81
2022/10/03 04:03:02;;;;;;;3.57;3.30;;;;;;;11.74;70.90;96806.09;5049592;28;20218;-77
2022/10/03 04:05:35;;;;;;;3.00;2.70;;;;;;;11.54;71.51;96801.94;5050679;28;20296;-78
2022/10/03 04:08:09;;;;;;;3.77;2.67;;;;;;;11.40;71.48;96792.31;5051207;28;20260;-78
2022/10/03 04:11:21;;;;;;;2.70;2.50;;;;;;;11.54;70.95;96781.19;5053289;28;20193;-77
2022/10/03 04:14:11;;;;;;;3.40;2.60;;;;;;;11.91;70.69;96785.28;4989738;28;20217;-79
2022/10/03 04:20:30;;;;;;;4.67;2.70;;;;;;;12.53;67.34;96779.97;5050730;28;20223;-78
2022/10/03 04:23:06;;;;;;;3.00;2.80;;;;;;;12.58;67.62;96783.13;5051109;28;20199;-80
2022/10/03 04:25:33;;;;;;;2.30;2.10;;;;;;;12.38;67.57;96780.00;5049994;28;20214;-82
2022/10/03 04:28:25;;;;;;;6.93;4.60;;;;;;;12.51;67.48;96775.81;5050088;28;20192;-79
2022/10/03 04:31:22;;;;;;;4.13;3.30;;;;;;;12.63;68.15;96785.47;5049432;28;20186;-82
2022/10/03 04:34:33;;;;;;;8.67;3.20;;;;;;;12.74;67.94;96781.31;5049438;28;20731;-81
2022/10/03 04:37:15;;;;;;;3.40;2.67;;;;;;;12.55;67.24;96791.09;5049480;28;20217;-80
2022/10/03 04:40:23;;;;;;;3.57;3.20;;;;;;;12.58;68.45;96801.31;5050501;28;20241;-81
2022/10/03 04:43:12;;;;;;;8.63;3.63;;;;;;;12.66;66.99;96793.91;5050808;28;20194;-82
2022/10/03 04:46:14;;;;;;;4.93;3.67;;;;;;;12.79;67.72;96807.88;5048111;28;20226;-80
2022/10/03 04:48:41;;;;;;;7.27;4.87;;;;;;;13.08;67.18;96806.22;5049772;28;20692;-78
2022/10/03 04:51:35;;;;;;;5.37;3.33;;;;;;;13.05;66.42;96785.56;5048541;28;20725;-81
2022/10/03 04:54:14;;;;;;;6.70;4.53;;;;;;;13.35;65.73;96801.97;5049221;28;20236;-81
2022/10/03 04:57:08;;;;;;;3.30;2.90;;;;;;;13.14;65.94;96803.25;5049628;28;20186;-78
2022/10/03 04:59:56;;;;;;;4.53;3.10;;;;;;;12.72;67.01;96795.31;5048283;28;20188;-78
2022/10/03 05:02:46;;;;;;;3.43;2.93;;;;;;;12.49;67.96;96790.63;5049529;28;20755;-78
2022/10/03 05:05:22;;;;;;;3.27;2.97;;;;;;;11.83;70.13;96767.50;5049474;28;20693;-77
2022/10/03 05:08:03;;;;;;;7.20;3.20;;;;;;;11.80;70.68;96778.06;5045938;28;20211;-77
2022/10/03 05:10:34;;;;;;;5.77;3.27;;;;;;;12.00;69.87;96784.75;5048478;28;20267;-80
2022/10/03 05:13:10;;;;;;;5.20;3.20;;;;;;;12.27;69.16;96772.81;5049191;28;20282;-81
2022/10/03 05:15:40;;;;;;;5.63;4.00;;;;;;;12.89;67.78;96797.78;5049223;28;20196;-80
2022/10/03 05:18:18;;;;;;;3.00;2.70;;;;;;;12.88;66.59;96796.94;5049581;28;20224;-81
2022/10/03 05:21:04;;;;;;;4.60;2.77;;;;;;;13.06;66.25;96795.88;5049179;28;20200;-79
2022/10/03 05:24:01;;;;;;;5.50;3.03;;;;;;;13.26;66.55;96799.06;5049730;28;20239;-77
2022/10/03 05:26:45;;;;;;;4.17;3.20;;;;;;;13.28;65.72;96794.59;5047645;28;20216;-78
2022/10/03 05:29:34;;;;;;;5.20;3.60;;;;;;;13.49;66.06;96814.13;5048358;28;20243;-80
2022/10/03 05:32:16;;;;;;;10.17;7.83;;;;;;;13.35;66.28;96827.97;5049312;28;20199;-78
2022/10/03 05:35:19;;;;;;;10.83;7.00;;;;;;;12.94;67.60;96827.75;5048339;28;20189;-77
2022/10/03 05:38:09;;;;;;;8.73;6.20;;;;;;;12.92;67.47;96821.00;5051011;28;20226;-78
2022/10/03 05:40:41;;;;;;;15.20;6.07;;;;;;;12.83;68.30;96798.13;5050468;28;20187;-80
2022/10/03 05:43:23;;;;;;;10.30;6.17;;;;;;;12.81;67.67;96819.03;5048891;28;20285;-81
2022/10/03 05:46:02;;;;;;;10.30;5.90;;;;;;;12.27;69.09;96809.19;5049539;28;20220;-78
2022/10/03 05:48:40;;;;;;;9.13;5.27;;;;;;;12.64;68.52;96813.97;5049148;28;20192;-80
2022/10/03 05:51:35;;;;;;;14.40;5.67;;;;;;;13.06;67.35;96810.66;5046626;28;20190;-78
2022/10/03 05:54:09;;;;;;;8.87;6.43;;;;;;;13.38;66.06;96806.13;5049865;28;20188;-80
2022/10/03 05:56:45;;;;;;;8.47;4.63;;;;;;;13.19;66.01;96798.59;5047294;28;20741;-79
2022/10/03 05:59:50;;;;;;;6.73;4.00;;;;;;;13.37;65.58;96804.47;5047936;28;20184;-77
2022/10/03 06:02:54;;;;;;;5.97;4.63;;;;;;;13.70;64.32;96807.59;5049214;28;20212;-78
2022/10/03 06:05:37;;;;;;;7.13;3.43;;;;;;;13.73;64.34;96810.00;5047639;28;20187;-78
2022/10/03 06:08:51;;;;;;;5.17;3.00;;;;;;;14.12;63.37;96804.06;5047263;28;20213;-77
2022/10/03 06:11:30;;;;;;;3.97;2.90;;;;;;;14.54;61.39;96807.41;5043698;28;20621;-78
2022/10/03 06:14:19;;;;;;;9.23;3.60;;;;;;;14.93;59.92;96800.50;5047153;28;20675;-76
2022/10/03 06:17:23;;;;;;;4.97;2.70;;;;;;;15.05;59.37;96776.19;5030709;28;20201;-78
2022/10/03 06:20:21;;;;;;;13.33;6.80;;;;;;;15.37;58.53;96782.69;5044640;28;20306;-78
2022/10/03 06:23:19;;;;;;;11.93;5.23;;;;;;;15.31;59.15;96775.28;5048130;28;20194;-81
2022/10/03 06:26:03;;;;;;;5.90;4.40;;;;;;;15.52;57.61;96792.06;5022696;28;20233;-79
2022/10/03 06:28:56;;;;;;;6.17;3.27;;;;;;;15.67;58.00;96785.78;5048617;28;20324;-80
2022/10/03 06:31:49;;;;;;;6.17;3.73;;;;;;;15.85;58.27;96787.09;5046097;28;20226;-81
2022/10/03 06:34:25;;;;;;;8.20;4.27;;;;;;;16.05;57.06;96791.75;5047800;28;20653;-81
2022/10/03 06:37:18;;;;;;;6.17;3.70;;;;;;;16.30;55.79;96783.81;5051364;28;20226;-81
2022/10/03 06:40:12;;;;;;;9.70;4.67;;;;;;;16.87;54.42;96780.50;5055415;28;20224;-80
2022/10/03 06:43:00;;;;;;;7.10;2.97;;;;;;;17.20;53.84;96774.50;5050004;28;20189;-79
2022/10/03 06:45:55;;;;;;;4.67;2.47;;;;;;;17.42;52.19;96785.84;5050170;28;20218;-78
2022/10/03 06:48:38;;;;;;;6.50;2.70;;;;;;;17.47;52.30;96783.72;5061778;28;20662;-80
2022/10/03 06:51:24;;;;;;;6.80;3.50;;;;;;;17.75;52.37;96782.41;5048029;28;20219;-81
2022/10/03 06:54:18;;;;;;;12.10;5.27;;;;;;;17.73;52.23;96779.94;5047798;28;20270;-80
2022/10/03 06:57:07;;;;;;;18.63;4.83;;;;;;;17.91;52.60;96777.63;5046295;28;20185;-78
2022/10/03 07:00:00;;;;;;;7.57;3.70;;;;;;;18.18;52.00;96771.97;5047419;28;20219;-77
2022/10/03 07:02:50;;;;;;;5.83;3.50;;;;;;;18.34;51.87;96788.16;5047128;28;20200;-78
2022/10/03 07:05:18;;;;;;;7.10;3.40;;;;;;;18.04;51.94;96786.19;5046389;28;20187;-78
2022/10/03 07:08:19;;;;;;;7.67;3.97;;;;;;;18.09;52.15;96798.94;5047124;28;20237;-80
2022/10/03 07:10:58;;;;;;;5.50;2.93;;;;;;;17.81;52.84;96795.03;5046770;28;20198;-79
2022/10/03 07:13:38;;;;;;;4.97;3.20;;;;;;;17.81;53.25;96800.28;5045218;28;20205;-81
2022/10/03 07:16:29;;;;;;;5.23;3.27;;;;;;;17.87;53.43;96792.78;5062821;28;20188;-79
2022/10/03 07:19:19;;;;;;;6.40;3.20;;;;;;;18.12;53.33;96788.19;5044459;28;20700;-81
2022/10/03 07:22:04;;;;;;;5.77;3.37;;;;;;;18.52;51.97;96792.78;5046956;28;20641;-80
2022/10/03 07:25:12;;;;;;;6.30;3.50;;;;;;;18.85;50.86;96790.97;5047601;28;20258;-80
2022/10/03 07:28:10;;;;;;;4.17;2.93;;;;;;;18.83;49.65;96791.13;5027993;28;20239;-83
2022/10/03 07:31:01;;;;;;;3.80;2.20;;;;;;;18.12;52.07;96782.97;5045761;28;20197;-81
2022/10/03 07:33:50;;;;;;;5.00;4.50;;;;;;;18.28;50.91;96776.38;5052008;28;20580;-81
2022/10/03 07:40:12;;;;;;;3.93;2.37;;;;;;;17.87;52.22;96779.66;5052580;28;20223;-76
2022/10/03 07:43:14;;;;;;;2.00;1.80;;;;;;;18.15;50.66;96780.09;5046828;28;20204;-82
2022/10/03 07:45:46;;;;;;;3.00;2.20;;;;;;;18.46;50.29;96777.56;5051961;28;20200;-78
2022/10/03 07:49:04;;;;;;;6.07;3.03;;;;;;;18.71;49.68;96776.38;5050466;28;20193;-80
2022/10/03 07:51:48;;;;;;;2.73;2.10;;;;;;;18.60;48.07;96786.91;5025614;28;20200;-78
2022/10/03 07:54:26;;;;;;;6.30;3.67;;;;;;;18.20;49.53;96756.97;5066966;28;20205;-78
2022/10/03 07:57:34;;;;;;;2.63;1.93;;;;;;;18.53;49.67;96785.72;5050111;28;20686;-78
2022/10/03 08:00:06;;;;;;;4.80;1.93;;;;;;;18.79;48.06;96784.44;5050739;28;20188;-79
2022/10/03 08:03:17;;;;;;;2.33;1.57;;;;;;;18.94;48.71;96782.34;5049664;28;20185;-80
2022/10/03 08:05:53;;;;;;;1.80;0.70;;;;;;;18.86;47.15;96776.88;5049388;28;20197;-79
2022/10/03 08:08:32;;;;;;;0.80;0.80;;;;;;;19.04;46.33;96781.44;5049210;28;20271;-82
2022/10/03 08:11:02;;;;;;;1.33;1.00;;;;;;;19.08;45.76;96751.34;5049201;28;20235;-77
2022/10/03 08:14:08;;;;;;;1.10;1.00;;;;;;;19.36;45.85;96782.22;5050231;28;20666;-77
2022/10/03 08:16:54;;;;;;;1.47;0.80;;;;;;;19.47;45.56;96776.88;5048819;28;20212;-81
2022/10/03 08:19:30;;;;;;;4.77;1.10;;;;;;;19.48;45.49;96778.56;5049367;28;20279;-80
2022/10/03 08:22:03;;;;;;;0.70;0.70;;;;;;;19.42;45.63;96771.19;5050279;28;20201;-80
2022/10/03 08:24:39;;;;;;;2.50;0.80;;;;;;;19.41;45.77;96777.41;5049013;28;20705;-77
2022/10/03 08:27:11;;;;;;;3.83;0.90;;;;;;;19.35;46.06;96775.31;5049741;28;20273;-78
2022/10/03 08:29:56;;;;;;;0.87;0.70;;;;;;;19.28;46.34;96781.19;5049838;28;20182;-80
2022/10/03 08:32:43;;;;;;;2.33;1.00;;;;;;;19.18;46.49;96780.28;5048217;28;20201;-79
2022/10/03 08:35:27;;;;;;;2.70;0.80;;;;;;;19.26;45.37;96783.94;5050151;28;20216;-79
2022/10/03 08:38:10;;;;;;;1.10;0.83;;;;;;;19.21;46.69;96788.75;5048473;28;20220;-79
2022/10/03 08:40:55;;;;;;;1.10;0.80;;;;;;;19.01;46.95;96800.06;5051254;28;20257;-80
2022/10/03 08:44:02;;;;;;;1.20;0.80;;;;;;;18.59;47.71;96793.09;5047894;28;20460;-82
2022/10/03 08:47:03;;;;;;;1.10;0.90;;;;;;;18.41;48.41;96790.16;5049228;28;20222;-78
2022/10/03 08:50:05;;;;;;;1.30;0.80;;;;;;;18.20;48.28;96784.00;5048328;28;20213;-79
2022/10/03 08:52:41;;;;;;;1.50;0.93;;;;;;;18.28;48.63;96788.66;5049647;28;20183;-81
2022/10/03 08:55:35;;;;;;;1.80;1.10;;;;;;;18.32;49.16;96792.72;5047807;28;20193;-81
2022/10/03 08:58:38;;;;;;;1.10;0.90;;;;;;;18.27;48.78;96793.06;5049713;28;20200;-81
2022/10/03 09:01:42;;;;;;;1.60;0.90;;;;;;;18.24;49.38;96808.19;5018714;28;20755;-81
2022/10/03 09:04:16;;;;;;;1.43;0.70;;;;;;;18.27;49.33;96802.72;5049454;28;20193;-79
2022/10/03 09:07:11;;;;;;;2.90;1.27;;;;;;;18.35;49.56;96814.25;5048019;28;20602;-78
2022/10/03 09:10:08;;;;;;;7.90;1.77;;;;;;;18.20;49.61;96817.25;5049107;28;20281;-81
2022/10/03 09:13:15;;;;;;;1.00;0.90;;;;;;;17.95;50.38;96828.84;5048736;28;20202;-80
2022/10/03 09:16:23;;;;;;;1.77;1.00;;;;;;;17.54;51.77;96821.59;5047816;28;20218;-80
2022/10/03 09:19:06;;;;;;;1.90;1.07;;;;;;;17.35;52.70;96828.31;5050498;28;20204;-78
2022/10/03 09:22:08;;;;;;;1.27;0.90;;;;;;;17.09;54.48;96817.19;5048205;28;20262;-81
2022/10/03 09:25:14;;;;;;;1.00;0.90;;;;;;;17.15;55.92;96831.59;5048830;28;20187;-80
2022/10/03 09:27:49;;;;;;;1.63;1.00;;;;;;;16.95;56.22;96825.25;5046780;28;20231;-81
2022/10/03 09:30:19;;;;;;;1.30;0.87;;;;;;;16.69;57.48;96831.56;5049067;28;20183;-79
2022/10/03 09:33:34;;;;;;;1.83;1.00;;;;;;;16.52;58.07;96790.13;5047690;28;20195;-81
2022/10/03 09:36:41;;;;;;;1.33;1.03;;;;;;;16.62;57.54;96815.50;5018105;28;20628;-81
2022/10/03 09:39:46;;;;;;;3.60;2.07;;;;;;;16.88;57.72;96824.84;5067707;28;20306;-81
2022/10/03 09:42:26;;;;;;;3.60;1.83;;;;;;;17.05;56.99;96815.75;5051029;28;20186;-81
2022/10/03 09:45:11;;;;;;;3.57;1.67;;;;;;;17.10;56.30;96819.69;5049969;28;20273;-80
2022/10/03 09:48:02;;;;;;;2.37;1.50;;;;;;;17.37;56.11;96826.41;5048749;28;20613;-80
2022/10/03 09:50:52;;;;;;;3.40;2.23;;;;;;;17.58;55.21;96828.25;5047681;28;20194;-79
2022/10/03 09:53:26;;;;;;;1.93;1.10;;;;;;;17.74;54.28;96823.50;5047196;28;20252;-79
2022/10/03 09:56:25;;;;;;;2.83;0.90;;;;;;;17.90;54.15;96815.28;5048872;28;20194;-81
2022/10/03 09:59:13;;;;;;;1.20;0.80;;;;;;;17.85;54.55;96818.25;5047342;28;20213;-80
2022/10/03 10:01:50;;;;;;;2.47;1.37;;;;;;;17.97;54.21;96811.22;5047281;28;20214;-79
2022/10/03 10:04:38;;;;;;;3.03;1.10;;;;;;;18.07;54.03;96822.66;5047148;28;20641;-79
2022/10/03 10:07:59;;;;;;;2.40;1.30;;;;;;;18.01;54.14;96822.31;5048182;28;20605;-79
2022/10/03 10:11:09;;;;;;;3.80;1.97;;;;;;;18.04;54.75;96814.19;5048201;28;20705;-80
2022/10/03 10:14:00;;;;;;;2.47;1.30;;;;;;;18.13;55.63;96816.09;5046229;28;20647;-80
2022/10/03 10:17:07;;;;;;;2.70;1.40;;;;;;;17.81;55.46;96823.84;5046689;28;20214;-80
2022/10/03 10:20:04;;;;;;;2.70;1.33;;;;;;;17.87;57.70;96818.13;5049063;28;20307;-80
2022/10/03 10:22:46;;;;;;;2.17;1.47;;;;;;;18.18;56.42;96824.41;5047958;28;20601;-81
2022/10/03 10:25:19;;;;;;;2.33;1.83;;;;;;;18.38;58.67;96827.09;5046621;28;20230;-80
2022/10/03 10:28:08;;;;;;;2.97;1.77;;;;;;;18.63;57.92;96818.97;5047743;28;20223;-81
2022/10/03 10:31:14;;;;;;;2.00;1.87;;;;;;;18.78;58.38;96811.63;5047142;28;20215;-82
2022/10/03 10:34:02;;;;;;;2.13;1.57;;;;;;;18.32;55.58;96748.94;5046009;28;20198;-80
2022/10/03 10:37:10;;;;;;;5.63;2.93;;;;;;;19.06;56.69;96818.88;5030301;28;20199;-81
2022/10/03 10:40:11;;;;;;;11.57;5.23;;;;;;;19.05;56.18;96822.50;5048365;28;20248;-81
2022/10/03 10:43:05;;;;;;;6.67;4.07;;;;;;;19.14;56.46;96818.28;5046792;28;20198;-80
2022/10/03 10:46:03;;;;;;;2.87;2.33;;;;;;;19.21;55.04;96815.00;5047894;28;20204;-80
2022/10/03 10:49:08;;;;;;;4.03;2.40;;;;;;;19.31;55.08;96808.00;5045929;28;20247;-81
2022/10/03 10:51:47;;;;;;;4.00;2.10;;;;;;;19.22;56.67;96813.22;5012998;28;20335;-81
2022/10/03 10:54:36;;;;;;;9.03;4.87;;;;;;;19.31;55.04;96810.63;5048199;28;20232;-81
2022/10/03 10:57:45;;;;;;;6.07;2.60;;;;;;;19.29;55.28;96809.09;5055690;28;20194;-80
2022/10/03 11:00:39;;;;;;;13.60;2.60;;;;;;;19.15;54.55;96791.88;5025612;28;20735;-78
2022/10/03 11:03:27;;;;;;;3.63;2.40;;;;;;;19.25;54.90;96810.31;5049742;28;20197;-80
2022/10/03 11:06:28;;;;;;;4.27;2.10;;;;;;;19.17;54.50;96805.72;5046435;28;20283;-78
2022/10/03 11:09:32;;;;;;;2.63;1.50;;;;;;;19.14;54.29;96805.16;5046387;28;20256;-80
2022/10/03 11:12:40;;;;;;;7.70;4.10;;;;;;;19.35;53.87;96808.63;5047479;28;20303;-80
2022/10/03 11:16:14;;;;;;;10.07;2.13;;;;;;;19.34;52.67;96801.69;5047627;28;20182;-81
2022/10/03 11:19:04;;;;;;;4.17;1.60;;;;;;;19.39;53.19;96810.84;4984994;28;20770;-80
2022/10/03 11:21:46;;;;;;;4.30;1.50;;;;;;;19.54;52.76;96813.16;4984056;28;20192;-79
2022/10/03 11:24:34;;;;;;;1.60;1.20;;;;;;;19.47;53.22;96813.66;5043249;28;20199;-79
2022/10/03 11:27:28;;;;;;;4.67;1.20;;;;;;;19.83;52.41;96806.22;5045579;28;20787;-79
2022/10/03 11:30:15;;;;;;;3.03;1.97;;;;;;;19.97;50.78;96811.94;5045847;28;20276;-78
2022/10/03 11:32:43;;;;;;;2.03;1.83;;;;;;;19.70;50.85;96801.19;5046772;28;20279;-77
2022/10/03 11:35:43;;;;;;;2.33;1.80;;;;;;;19.47;50.42;96803.16;5045274;28;20271;-78
2022/10/03 11:38:19;;;;;;;3.33;3.00;;;;;;;19.38;50.99;96803.94;5046701;28;20186;-79
2022/10/03 11:40:54;;;;;;;2.77;1.87;;;;;;;18.94;51.32;96809.41;5049646;28;20203;-80
2022/10/03 11:43:33;;;;;;;2.03;1.90;;;;;;;18.68;51.56;96814.19;5045308;28;20193;-79
2022/10/03 11:46:03;;;;;;;4.20;2.07;;;;;;;18.50;52.48;96814.84;5047331;28;20731;-78
2022/10/03 11:48:41;;;;;;;4.30;1.53;;;;;;;18.51;53.03;96812.09;5046097;28;20701;-82
2022/10/03 11:51:38;;;;;;;1.87;1.77;;;;;;;18.47;52.40;96815.91;5061869;28;20228;-81
2022/10/03 11:54:40;;;;;;;1.90;1.80;;;;;;;18.57;51.85;96810.75;5046798;28;20586;-79
2022/10/03 11:57:25;;;;;;;2.83;1.40;;;;;;;18.47;52.40;96817.69;5041405;28;20250;-80
2022/10/03 11:59:59;;;;;;;1.87;1.70;;;;;;;18.55;51.62;96812.66;5046293;28;20213;-78
2022/10/03 12:02:48;;;;;;;1.40;1.30;;;;;;;18.65;51.30;96824.06;5046532;28;20287;-80
2022/10/03 12:05:32;;;;;;;1.07;1.00;;;;;;;18.67;51.27;96788.91;5045161;28;20189;-79
2022/10/03 12:11:26;;;;;;;1.60;1.00;;;;;;;18.78;50.53;96813.41;5045594;28;20197;-80
2022/10/03 12:14:08;;;;;;;1.87;1.00;;;;;;;18.71;50.61;96805.25;5044874;28;20188;-79
2022/10/03 12:17:19;;;;;;;1.30;1.00;;;;;;;18.68;49.75;96811.56;5046590;28;20676;-80
2022/10/03 12:19:52;;;;;;;1.83;1.03;;;;;;;18.87;49.45;96818.75;5065045;28;20199;-78
2022/10/03 12:22:41;;;;;;;1.13;1.00;;;;;;;18.91;48.99;96804.44;5047568;28;20192;-80
2022/10/03 12:25:19;;;;;;;2.30;0.90;;;;;;;19.10;48.32;96796.66;5050417;28;20192;-80
2022/10/03 12:28:13;;;;;;;1.77;1.10;;;;;;;19.14;47.73;96832.25;5049083;28;20239;-78
2022/10/03 12:30:43;;;;;;;0.80;0.80;;;;;;;18.81;46.68;96816.66;5048750;28;20663;-80
2022/10/03 12:33:43;;;;;;;2.13;1.30;;;;;;;18.76;47.48;96808.31;5049940;28;20195;-80
2022/10/03 12:36:17;;;;;;;0.93;0.87;;;;;;;18.85;46.91;96820.69;5048656;28;20658;-79
2022/10/03 12:38:59;;;;;;;1.17;1.00;;;;;;;18.89;46.35;96816.00;5049520;28;20381;-78
2022/10/03 12:41:45;;;;;;;0.80;0.80;;;;;;;19.00;46.22;96808.91;5052736;28;20188;-78
2022/10/03 12:44:46;;;;;;;1.00;0.80;;;;;;;19.02;45.42;96799.09;5047186;28;20909;-83
2022/10/03 12:47:43;;;;;;;2.37;1.20;;;;;;;19.13;44.41;96759.66;5049774;28;20339;-79
2022/10/03 12:51:00;;;;;;;4.70;1.30;;;;;;;19.57;43.38;96789.25;5049615;28;20193;-79
2022/10/03 12:53:43;;;;;;;1.33;0.83;;;;;;;19.58;42.25;96790.91;5038302;28;20199;-79
2022/10/03 12:56:20;;;;;;;2.97;1.00;;;;;;;19.41;43.03;96756.41;5048943;28;20669;-80
2022/10/03 12:59:04;;;;;;;2.60;1.00;;;;;;;19.76;42.85;96781.44;5048963;28;20283;-79
2022/10/03 13:02:06;;;;;;;2.30;1.20;;;;;;;19.73;43.30;96774.66;5047845;28;20660;-79
2022/10/03 13:04:46;;;;;;;2.77;1.17;;;;;;;19.65;43.16;96776.28;5018730;28;20625;-80
2022/10/03 13:07:26;;;;;;;2.83;1.33;;;;;;;19.64;43.35;96782.50;5048424;28;20844;-80
2022/10/03 13:10:40;;;;;;;1.53;1.00;;;;;;;19.53;43.77;96779.97;5047993;28;20199;-81
2022/10/03 13:13:18;;;;;;;1.47;0.90;;;;;;;19.52;44.24;96783.53;5049418;28;20274;-81
2022/10/03 13:16:21;;;;;;;2.70;1.00;;;;;;;19.43;44.83;96772.03;5048036;28;20221;-80
2022/10/03 13:19:19;;;;;;;1.27;1.00;;;;;;;19.54;45.37;96773.75;5049332;28;20263;-80
2022/10/03 13:22:02;;;;;;;1.20;1.10;;;;;;;19.43;44.56;96791.25;5049104;28;20660;-80
2022/10/03 13:24:38;;;;;;;2.00;1.17;;;;;;;19.03;45.59;96755.31;5047189;28;20224;-81
2022/10/03 13:27:33;;;;;;;1.73;1.00;;;;;;;19.01;45.78;96778.25;5047891;28;20223;-80
2022/10/03 13:30:23;;;;;;;1.20;1.10;;;;;;;19.05;45.65;96769.16;5049933;28;20241;-81